sensor_id;sensor_type;location;lat;lon;timestamp;temperature;humidity
15543;DHT22;7873;52.230;12.856;2022-07-15T00:01:59;25.70;40.80
15543;DHT22;7873;52.230;12.856;2022-07-15T00:04:25;25.70;40.80
15543;DHT22;7873;52.230;12.856;2022-07-15T00:06:52;25.70;40.70
15543;DHT22;7873;52.230;12.856;2022-07-15T00:09:20;25.80;40.70
15543;DHT22;7873;52.230;12.856;2022-07-15T00:12:08;25.80;40.70
15543;DHT22;7873;52.230;12.856;2022-07-15T00:14:35;25.80;40.70
15543;DHT22;7873;52.230;12.856;2022-07-15T00:17:01;25.70;40.80
15543;DHT22;7873;52.230;12.856;2022-07-15T00:19:28;25.70;40.80
15543;DHT22;7873;52.230;12.856;2022-07-15T00:21:56;25.80;40.80
15543;DHT22;7873;52.230;12.856;2022-07-15T00:24:24;25.70;40.80
15543;DHT22;7873;52.230;12.856;2022-07-15T00:26:50;25.70;40.90
15543;DHT22;7873;52.230;12.856;2022-07-15T00:29:17;25.80;40.70
15543;DHT22;7873;52.230;12.856;2022-07-15T00:31:44;25.80;40.70
15543;DHT22;7873;52.230;12.856;2022-07-15T00:34:10;25.80;40.80
15543;DHT22;7873;52.230;12.856;2022-07-15T00:36:37;25.80;40.70
15543;DHT22;7873;52.230;12.856;2022-07-15T00:39:04;25.80;40.60
15543;DHT22;7873;52.230;12.856;2022-07-15T00:41:36;25.90;40.70
15543;DHT22;7873;52.230;12.856;2022-07-15T00:44:03;25.80;40.70
15543;DHT22;7873;52.230;12.856;2022-07-15T00:46:30;25.80;40.70
15543;DHT22;7873;52.230;12.856;2022-07-15T00:48:57;25.80;40.60
15543;DHT22;7873;52.230;12.856;2022-07-15T00:51:24;25.90;40.90
15543;DHT22;7873;52.230;12.856;2022-07-15T00:53:53;25.90;40.70
15543;DHT22;7873;52.230;12.856;2022-07-15T00:56:23;25.90;40.80
15543;DHT22;7873;52.230;12.856;2022-07-15T00:58:53;25.90;40.70
15543;DHT22;7873;52.230;12.856;2022-07-15T01:01:19;25.90;40.60
15543;DHT22;7873;52.230;12.856;2022-07-15T01:03:46;25.90;40.60
15543;DHT22;7873;52.230;12.856;2022-07-15T01:06:14;25.90;40.70
15543;DHT22;7873;52.230;12.856;2022-07-15T01:08:41;25.80;40.80
15543;DHT22;7873;52.230;12.856;2022-07-15T01:11:08;25.90;40.90
15543;DHT22;7873;52.230;12.856;2022-07-15T01:13:35;25.80;40.80
15543;DHT22;7873;52.230;12.856;2022-07-15T01:16:03;25.80;40.90
15543;DHT22;7873;52.230;12.856;2022-07-15T01:18:30;25.80;40.80
15543;DHT22;7873;52.230;12.856;2022-07-15T01:20:58;25.80;40.80
15543;DHT22;7873;52.230;12.856;2022-07-15T01:23:25;25.90;40.90
15543;DHT22;7873;52.230;12.856;2022-07-15T01:25:52;25.80;40.80
15543;DHT22;7873;52.230;12.856;2022-07-15T01:28:19;25.80;40.80
15543;DHT22;7873;52.230;12.856;2022-07-15T01:30:46;25.80;40.70
15543;DHT22;7873;52.230;12.856;2022-07-15T01:33:13;25.80;40.90
15543;DHT22;7873;52.230;12.856;2022-07-15T01:35:40;25.80;40.90
15543;DHT22;7873;52.230;12.856;2022-07-15T01:38:08;25.90;40.80
15543;DHT22;7873;52.230;12.856;2022-07-15T01:40:35;25.80;41.00
15543;DHT22;7873;52.230;12.856;2022-07-15T01:43:02;25.80;41.00
15543;DHT22;7873;52.230;12.856;2022-07-15T01:45:28;25.80;41.00
15543;DHT22;7873;52.230;12.856;2022-07-15T01:47:55;25.90;40.70
15543;DHT22;7873;52.230;12.856;2022-07-15T01:50:22;25.80;40.70
15543;DHT22;7873;52.230;12.856;2022-07-15T01:52:48;25.80;40.90
15543;DHT22;7873;52.230;12.856;2022-07-15T01:55:17;25.80;40.90
15543;DHT22;7873;52.230;12.856;2022-07-15T01:57:44;25.80;40.90
15543;DHT22;7873;52.230;12.856;2022-07-15T02:00:11;25.70;40.90
15543;DHT22;7873;52.230;12.856;2022-07-15T02:02:41;25.80;41.00
15543;DHT22;7873;52.230;12.856;2022-07-15T02:05:08;25.80;41.00
15543;DHT22;7873;52.230;12.856;2022-07-15T02:07:34;25.80;41.00
15543;DHT22;7873;52.230;12.856;2022-07-15T02:10:02;25.80;40.90
15543;DHT22;7873;52.230;12.856;2022-07-15T02:12:30;25.80;40.90
15543;DHT22;7873;52.230;12.856;2022-07-15T02:14:57;25.90;40.80
15543;DHT22;7873;52.230;12.856;2022-07-15T02:17:24;25.80;40.90
15543;DHT22;7873;52.230;12.856;2022-07-15T02:19:50;25.80;40.90
15543;DHT22;7873;52.230;12.856;2022-07-15T02:22:17;25.70;40.80
15543;DHT22;7873;52.230;12.856;2022-07-15T02:24:44;25.70;41.00
15543;DHT22;7873;52.230;12.856;2022-07-15T02:27:10;25.70;40.80
15543;DHT22;7873;52.230;12.856;2022-07-15T02:29:38;25.70;41.00
15543;DHT22;7873;52.230;12.856;2022-07-15T02:32:05;25.50;41.20
15543;DHT22;7873;52.230;12.856;2022-07-15T02:34:32;25.50;41.50
15543;DHT22;7873;52.230;12.856;2022-07-15T02:36:59;25.50;41.60
15543;DHT22;7873;52.230;12.856;2022-07-15T02:39:25;25.50;41.40
15543;DHT22;7873;52.230;12.856;2022-07-15T02:41:52;25.60;41.40
15543;DHT22;7873;52.230;12.856;2022-07-15T02:44:19;25.60;41.30
15543;DHT22;7873;52.230;12.856;2022-07-15T02:46:47;25.70;41.20
15543;DHT22;7873;52.230;12.856;2022-07-15T02:49:13;25.70;41.10
15543;DHT22;7873;52.230;12.856;2022-07-15T02:51:40;25.70;41.10
15543;DHT22;7873;52.230;12.856;2022-07-15T02:54:07;25.70;41.20
15543;DHT22;7873;52.230;12.856;2022-07-15T02:56:34;25.60;41.00
15543;DHT22;7873;52.230;12.856;2022-07-15T02:59:00;25.70;41.20
15543;DHT22;7873;52.230;12.856;2022-07-15T03:01:27;25.70;40.90
15543;DHT22;7873;52.230;12.856;2022-07-15T03:03:55;25.70;41.00
15543;DHT22;7873;52.230;12.856;2022-07-15T03:06:22;25.60;41.10
15543;DHT22;7873;52.230;12.856;2022-07-15T03:08:48;25.60;41.20
15543;DHT22;7873;52.230;12.856;2022-07-15T03:11:15;25.60;41.40
15543;DHT22;7873;52.230;12.856;2022-07-15T03:13:42;25.60;41.30
15543;DHT22;7873;52.230;12.856;2022-07-15T03:16:08;25.50;41.20
15543;DHT22;7873;52.230;12.856;2022-07-15T03:18:35;25.60;41.40
15543;DHT22;7873;52.230;12.856;2022-07-15T03:21:03;25.60;41.20
15543;DHT22;7873;52.230;12.856;2022-07-15T03:23:30;25.60;41.20
15543;DHT22;7873;52.230;12.856;2022-07-15T03:25:57;25.60;41.10
15543;DHT22;7873;52.230;12.856;2022-07-15T03:28:23;25.60;41.10
15543;DHT22;7873;52.230;12.856;2022-07-15T03:30:50;25.60;41.20
15543;DHT22;7873;52.230;12.856;2022-07-15T03:33:17;25.60;41.00
15543;DHT22;7873;52.230;12.856;2022-07-15T03:35:44;25.50;41.10
15543;DHT22;7873;52.230;12.856;2022-07-15T03:38:12;25.60;41.20
15543;DHT22;7873;52.230;12.856;2022-07-15T03:40:38;25.60;41.10
15543;DHT22;7873;52.230;12.856;2022-07-15T03:43:05;25.50;41.30
15543;DHT22;7873;52.230;12.856;2022-07-15T03:45:32;25.40;41.40
15543;DHT22;7873;52.230;12.856;2022-07-15T03:47:58;25.40;41.50
15543;DHT22;7873;52.230;12.856;2022-07-15T03:50:25;25.40;41.60
15543;DHT22;7873;52.230;12.856;2022-07-15T03:52:52;25.40;41.50
15543;DHT22;7873;52.230;12.856;2022-07-15T03:55:20;25.50;41.30
15543;DHT22;7873;52.230;12.856;2022-07-15T03:57:47;25.50;41.20
15543;DHT22;7873;52.230;12.856;2022-07-15T04:00:14;25.50;41.20
15543;DHT22;7873;52.230;12.856;2022-07-15T04:02:41;25.50;41.30
15543;DHT22;7873;52.230;12.856;2022-07-15T04:05:08;25.30;41.60
15543;DHT22;7873;52.230;12.856;2022-07-15T04:07:35;25.20;42.20
15543;DHT22;7873;52.230;12.856;2022-07-15T04:10:02;25.10;42.60
15543;DHT22;7873;52.230;12.856;2022-07-15T04:12:31;25.00;42.80
15543;DHT22;7873;52.230;12.856;2022-07-15T04:14:58;25.00;42.90
15543;DHT22;7873;52.230;12.856;2022-07-15T04:17:24;25.10;42.90
15543;DHT22;7873;52.230;12.856;2022-07-15T04:19:51;25.10;42.90
15543;DHT22;7873;52.230;12.856;2022-07-15T04:22:18;25.10;43.00
15543;DHT22;7873;52.230;12.856;2022-07-15T04:24:45;25.10;43.20
15543;DHT22;7873;52.230;12.856;2022-07-15T04:27:12;25.00;43.10
15543;DHT22;7873;52.230;12.856;2022-07-15T04:29:40;25.10;43.10
15543;DHT22;7873;52.230;12.856;2022-07-15T04:32:07;25.30;42.90
15543;DHT22;7873;52.230;12.856;2022-07-15T04:34:34;25.50;41.60
15543;DHT22;7873;52.230;12.856;2022-07-15T04:37:00;25.50;41.50
15543;DHT22;7873;52.230;12.856;2022-07-15T04:39:27;25.40;42.20
15543;DHT22;7873;52.230;12.856;2022-07-15T04:41:54;25.30;42.40
15543;DHT22;7873;52.230;12.856;2022-07-15T04:44:21;25.20;42.20
15543;DHT22;7873;52.230;12.856;2022-07-15T04:46:49;25.30;42.20
15543;DHT22;7873;52.230;12.856;2022-07-15T04:49:15;25.40;42.20
15543;DHT22;7873;52.230;12.856;2022-07-15T04:52:00;25.40;41.90
15543;DHT22;7873;52.230;12.856;2022-07-15T04:54:26;25.40;41.90
15543;DHT22;7873;52.230;12.856;2022-07-15T04:56:53;25.40;42.40
15543;DHT22;7873;52.230;12.856;2022-07-15T04:59:20;25.40;41.60
15543;DHT22;7873;52.230;12.856;2022-07-15T05:01:46;25.40;41.60
15543;DHT22;7873;52.230;12.856;2022-07-15T05:04:15;25.50;41.60
15543;DHT22;7873;52.230;12.856;2022-07-15T05:06:41;25.40;41.60
15543;DHT22;7873;52.230;12.856;2022-07-15T05:09:08;25.40;41.70
15543;DHT22;7873;52.230;12.856;2022-07-15T05:11:35;25.40;41.60
15543;DHT22;7873;52.230;12.856;2022-07-15T05:14:02;25.50;41.50
15543;DHT22;7873;52.230;12.856;2022-07-15T05:16:29;25.40;41.40
15543;DHT22;7873;52.230;12.856;2022-07-15T05:18:57;25.50;41.60
15543;DHT22;7873;52.230;12.856;2022-07-15T05:21:24;25.40;41.60
15543;DHT22;7873;52.230;12.856;2022-07-15T05:23:51;25.20;41.80
15543;DHT22;7873;52.230;12.856;2022-07-15T05:26:18;25.10;42.20
15543;DHT22;7873;52.230;12.856;2022-07-15T05:28:44;25.00;42.70
15543;DHT22;7873;52.230;12.856;2022-07-15T05:31:11;24.80;43.30
15543;DHT22;7873;52.230;12.856;2022-07-15T05:33:38;24.80;44.40
15543;DHT22;7873;52.230;12.856;2022-07-15T05:36:09;24.80;43.50
15543;DHT22;7873;52.230;12.856;2022-07-15T05:38:37;24.80;43.70
15543;DHT22;7873;52.230;12.856;2022-07-15T05:41:04;24.90;43.90
15543;DHT22;7873;52.230;12.856;2022-07-15T05:43:30;24.90;43.50
15543;DHT22;7873;52.230;12.856;2022-07-15T05:45:57;25.00;43.30
15543;DHT22;7873;52.230;12.856;2022-07-15T05:48:24;25.00;43.60
15543;DHT22;7873;52.230;12.856;2022-07-15T05:50:50;25.10;43.50
15543;DHT22;7873;52.230;12.856;2022-07-15T05:53:18;25.00;43.70
15543;DHT22;7873;52.230;12.856;2022-07-15T05:55:45;25.00;43.60
15543;DHT22;7873;52.230;12.856;2022-07-15T05:58:12;25.00;43.70
15543;DHT22;7873;52.230;12.856;2022-07-15T06:00:38;25.00;43.70
15543;DHT22;7873;52.230;12.856;2022-07-15T06:03:05;25.00;43.90
15543;DHT22;7873;52.230;12.856;2022-07-15T06:05:32;25.10;44.40
15543;DHT22;7873;52.230;12.856;2022-07-15T06:07:59;25.10;43.80
15543;DHT22;7873;52.230;12.856;2022-07-15T06:10:28;25.10;43.70
15543;DHT22;7873;52.230;12.856;2022-07-15T06:12:55;25.20;43.90
15543;DHT22;7873;52.230;12.856;2022-07-15T06:15:21;25.20;44.20
15543;DHT22;7873;52.230;12.856;2022-07-15T06:17:48;25.10;44.70
15543;DHT22;7873;52.230;12.856;2022-07-15T06:20:16;25.10;44.80
15543;DHT22;7873;52.230;12.856;2022-07-15T06:22:42;25.00;44.50
15543;DHT22;7873;52.230;12.856;2022-07-15T06:25:10;25.10;44.50
15543;DHT22;7873;52.230;12.856;2022-07-15T06:27:39;25.10;44.30
15543;DHT22;7873;52.230;12.856;2022-07-15T06:30:07;25.10;44.20
15543;DHT22;7873;52.230;12.856;2022-07-15T06:32:34;25.10;44.20
15543;DHT22;7873;52.230;12.856;2022-07-15T06:35:01;25.10;44.10
15543;DHT22;7873;52.230;12.856;2022-07-15T06:37:29;25.10;43.90
15543;DHT22;7873;52.230;12.856;2022-07-15T06:39:56;25.10;44.50
15543;DHT22;7873;52.230;12.856;2022-07-15T06:42:22;25.10;44.60
15543;DHT22;7873;52.230;12.856;2022-07-15T06:44:51;25.00;44.80
15543;DHT22;7873;52.230;12.856;2022-07-15T06:47:17;25.20;44.40
15543;DHT22;7873;52.230;12.856;2022-07-15T06:49:44;25.20;44.70
15543;DHT22;7873;52.230;12.856;2022-07-15T06:52:11;25.20;44.40
15543;DHT22;7873;52.230;12.856;2022-07-15T06:54:38;25.20;44.70
15543;DHT22;7873;52.230;12.856;2022-07-15T06:57:05;25.20;44.70
15543;DHT22;7873;52.230;12.856;2022-07-15T06:59:31;25.20;44.80
15543;DHT22;7873;52.230;12.856;2022-07-15T07:01:59;25.20;45.20
15543;DHT22;7873;52.230;12.856;2022-07-15T07:04:26;25.10;45.30
15543;DHT22;7873;52.230;12.856;2022-07-15T07:06:53;25.10;45.70
15543;DHT22;7873;52.230;12.856;2022-07-15T07:09:20;25.20;45.80
15543;DHT22;7873;52.230;12.856;2022-07-15T07:11:46;25.20;45.90
15543;DHT22;7873;52.230;12.856;2022-07-15T07:14:13;25.10;46.10
15543;DHT22;7873;52.230;12.856;2022-07-15T07:16:40;25.00;46.30
15543;DHT22;7873;52.230;12.856;2022-07-15T07:19:08;25.10;46.30
15543;DHT22;7873;52.230;12.856;2022-07-15T07:21:35;25.10;46.30
15543;DHT22;7873;52.230;12.856;2022-07-15T07:24:02;25.20;46.30
15543;DHT22;7873;52.230;12.856;2022-07-15T07:26:29;25.20;46.30
15543;DHT22;7873;52.230;12.856;2022-07-15T07:28:56;25.20;46.40
15543;DHT22;7873;52.230;12.856;2022-07-15T07:31:22;25.20;46.60
15543;DHT22;7873;52.230;12.856;2022-07-15T07:33:52;25.20;46.80
15543;DHT22;7873;52.230;12.856;2022-07-15T07:36:22;25.00;47.00
15543;DHT22;7873;52.230;12.856;2022-07-15T07:38:48;25.00;47.00
15543;DHT22;7873;52.230;12.856;2022-07-15T07:41:15;25.10;46.90
15543;DHT22;7873;52.230;12.856;2022-07-15T07:43:42;25.10;46.80
15543;DHT22;7873;52.230;12.856;2022-07-15T07:46:10;25.10;47.00
15543;DHT22;7873;52.230;12.856;2022-07-15T07:48:37;25.10;47.00
15543;DHT22;7873;52.230;12.856;2022-07-15T07:51:04;25.10;46.90
15543;DHT22;7873;52.230;12.856;2022-07-15T07:53:32;25.10;46.60
15543;DHT22;7873;52.230;12.856;2022-07-15T07:55:59;25.50;45.70
15543;DHT22;7873;52.230;12.856;2022-07-15T07:58:26;25.60;43.90
15543;DHT22;7873;52.230;12.856;2022-07-15T08:00:53;25.60;41.90
15543;DHT22;7873;52.230;12.856;2022-07-15T08:03:20;25.60;42.20
15543;DHT22;7873;52.230;12.856;2022-07-15T08:05:47;25.50;41.90
15543;DHT22;7873;52.230;12.856;2022-07-15T08:08:15;25.50;41.60
15543;DHT22;7873;52.230;12.856;2022-07-15T08:10:44;25.40;41.40
15543;DHT22;7873;52.230;12.856;2022-07-15T08:13:13;25.40;41.20
15543;DHT22;7873;52.230;12.856;2022-07-15T08:15:39;25.40;41.20
15543;DHT22;7873;52.230;12.856;2022-07-15T08:18:06;25.40;41.40
15543;DHT22;7873;52.230;12.856;2022-07-15T08:20:34;25.40;41.00
15543;DHT22;7873;52.230;12.856;2022-07-15T08:23:01;25.40;40.70
15543;DHT22;7873;52.230;12.856;2022-07-15T08:25:29;25.30;40.90
15543;DHT22;7873;52.230;12.856;2022-07-15T08:27:58;25.30;40.50
15543;DHT22;7873;52.230;12.856;2022-07-15T08:30:26;25.20;41.50
15543;DHT22;7873;52.230;12.856;2022-07-15T08:32:53;25.20;40.60
15543;DHT22;7873;52.230;12.856;2022-07-15T08:35:20;25.20;40.40
15543;DHT22;7873;52.230;12.856;2022-07-15T08:37:48;25.20;40.40
15543;DHT22;7873;52.230;12.856;2022-07-15T08:40:15;25.20;40.30
15543;DHT22;7873;52.230;12.856;2022-07-15T08:42:42;25.20;40.10
15543;DHT22;7873;52.230;12.856;2022-07-15T08:45:13;25.20;40.00
15543;DHT22;7873;52.230;12.856;2022-07-15T08:47:42;25.10;40.10
15543;DHT22;7873;52.230;12.856;2022-07-15T08:50:12;25.10;40.10
15543;DHT22;7873;52.230;12.856;2022-07-15T08:52:42;25.10;40.00
15543;DHT22;7873;52.230;12.856;2022-07-15T08:55:11;25.10;40.00
15543;DHT22;7873;52.230;12.856;2022-07-15T08:57:38;25.10;39.70
15543;DHT22;7873;52.230;12.856;2022-07-15T09:00:05;25.10;39.80
15543;DHT22;7873;52.230;12.856;2022-07-15T09:02:37;25.10;39.70
15543;DHT22;7873;52.230;12.856;2022-07-15T09:05:20;25.10;39.70
15543;DHT22;7873;52.230;12.856;2022-07-15T09:07:49;25.10;39.80
15543;DHT22;7873;52.230;12.856;2022-07-15T09:10:18;25.00;39.70
15543;DHT22;7873;52.230;12.856;2022-07-15T09:12:48;25.00;39.60
15543;DHT22;7873;52.230;12.856;2022-07-15T09:15:28;25.00;39.70
15543;DHT22;7873;52.230;12.856;2022-07-15T09:18:13;25.00;39.50
15543;DHT22;7873;52.230;12.856;2022-07-15T09:20:42;25.00;39.70
15543;DHT22;7873;52.230;12.856;2022-07-15T09:23:10;25.00;39.80
15543;DHT22;7873;52.230;12.856;2022-07-15T09:25:38;25.00;39.80
15543;DHT22;7873;52.230;12.856;2022-07-15T09:28:06;24.90;39.90
15543;DHT22;7873;52.230;12.856;2022-07-15T09:30:34;24.90;39.60
15543;DHT22;7873;52.230;12.856;2022-07-15T09:33:22;25.00;39.70
15543;DHT22;7873;52.230;12.856;2022-07-15T09:36:04;25.00;39.20
15543;DHT22;7873;52.230;12.856;2022-07-15T09:38:35;25.00;39.00
15543;DHT22;7873;52.230;12.856;2022-07-15T09:41:07;24.90;39.30
15543;DHT22;7873;52.230;12.856;2022-07-15T09:43:45;24.90;39.30
15543;DHT22;7873;52.230;12.856;2022-07-15T09:46:13;24.80;39.50
15543;DHT22;7873;52.230;12.856;2022-07-15T09:48:42;24.70;40.10
15543;DHT22;7873;52.230;12.856;2022-07-15T09:51:09;24.70;40.70
15543;DHT22;7873;52.230;12.856;2022-07-15T09:53:37;24.70;40.90
15543;DHT22;7873;52.230;12.856;2022-07-15T09:56:06;24.70;41.20
15543;DHT22;7873;52.230;12.856;2022-07-15T09:58:38;24.70;41.40
15543;DHT22;7873;52.230;12.856;2022-07-15T10:01:07;24.80;41.30
15543;DHT22;7873;52.230;12.856;2022-07-15T10:03:34;24.80;41.70
15543;DHT22;7873;52.230;12.856;2022-07-15T10:06:03;24.90;41.40
15543;DHT22;7873;52.230;12.856;2022-07-15T10:08:31;24.80;41.60
15543;DHT22;7873;52.230;12.856;2022-07-15T10:10:59;24.70;39.70
15543;DHT22;7873;52.230;12.856;2022-07-15T10:19:37;24.60;41.40
15543;DHT22;7873;52.230;12.856;2022-07-15T10:22:19;24.80;40.90
15543;DHT22;7873;52.230;12.856;2022-07-15T10:25:00;24.80;40.30
15543;DHT22;7873;52.230;12.856;2022-07-15T10:27:38;24.80;40.90
15543;DHT22;7873;52.230;12.856;2022-07-15T10:30:24;24.70;41.60
15543;DHT22;7873;52.230;12.856;2022-07-15T10:33:05;24.70;42.20
15543;DHT22;7873;52.230;12.856;2022-07-15T10:35:42;24.80;42.50
15543;DHT22;7873;52.230;12.856;2022-07-15T10:41:08;25.00;42.70
15543;DHT22;7873;52.230;12.856;2022-07-15T10:43:38;25.10;42.50
15543;DHT22;7873;52.230;12.856;2022-07-15T10:46:13;25.00;42.90
15543;DHT22;7873;52.230;12.856;2022-07-15T10:48:48;25.20;42.90
15543;DHT22;7873;52.230;12.856;2022-07-15T10:57:06;25.10;43.30
15543;DHT22;7873;52.230;12.856;2022-07-15T10:59:35;25.20;43.00
15543;DHT22;7873;52.230;12.856;2022-07-15T11:02:12;25.30;43.00
15543;DHT22;7873;52.230;12.856;2022-07-15T11:04:41;25.30;42.90
15543;DHT22;7873;52.230;12.856;2022-07-15T11:07:19;25.20;43.10
15543;DHT22;7873;52.230;12.856;2022-07-15T11:09:54;25.10;43.50
15543;DHT22;7873;52.230;12.856;2022-07-15T11:12:23;25.00;43.60
15543;DHT22;7873;52.230;12.856;2022-07-15T11:14:52;25.10;43.40
15543;DHT22;7873;52.230;12.856;2022-07-15T11:17:21;25.30;43.30
15543;DHT22;7873;52.230;12.856;2022-07-15T11:19:52;25.20;43.30
15543;DHT22;7873;52.230;12.856;2022-07-15T11:22:21;25.00;43.60
15543;DHT22;7873;52.230;12.856;2022-07-15T11:24:50;25.00;43.60
15543;DHT22;7873;52.230;12.856;2022-07-15T11:27:19;25.00;43.60
15543;DHT22;7873;52.230;12.856;2022-07-15T11:29:47;25.00;43.60
15543;DHT22;7873;52.230;12.856;2022-07-15T11:32:15;25.20;43.50
15543;DHT22;7873;52.230;12.856;2022-07-15T11:34:44;25.20;43.60
15543;DHT22;7873;52.230;12.856;2022-07-15T11:37:13;25.20;43.60
15543;DHT22;7873;52.230;12.856;2022-07-15T11:39:44;25.20;43.50
15543;DHT22;7873;52.230;12.856;2022-07-15T11:42:21;25.20;43.70
15543;DHT22;7873;52.230;12.856;2022-07-15T11:45:07;25.20;43.90
15543;DHT22;7873;52.230;12.856;2022-07-15T11:47:45;25.30;43.70
15543;DHT22;7873;52.230;12.856;2022-07-15T11:50:17;25.30;43.60
15543;DHT22;7873;52.230;12.856;2022-07-15T11:52:44;25.20;43.70
15543;DHT22;7873;52.230;12.856;2022-07-15T11:55:11;25.10;43.80
15543;DHT22;7873;52.230;12.856;2022-07-15T11:57:43;25.20;43.70
15543;DHT22;7873;52.230;12.856;2022-07-15T12:00:12;25.30;43.50
15543;DHT22;7873;52.230;12.856;2022-07-15T12:02:39;25.20;43.50
15543;DHT22;7873;52.230;12.856;2022-07-15T12:05:07;25.20;43.30
15543;DHT22;7873;52.230;12.856;2022-07-15T12:07:38;25.20;43.20
15543;DHT22;7873;52.230;12.856;2022-07-15T12:10:09;25.20;43.00
15543;DHT22;7873;52.230;12.856;2022-07-15T12:12:41;25.30;43.00
15543;DHT22;7873;52.230;12.856;2022-07-15T12:15:09;25.30;42.40
15543;DHT22;7873;52.230;12.856;2022-07-15T12:17:36;25.10;41.50
15543;DHT22;7873;52.230;12.856;2022-07-15T12:20:04;25.00;41.20
15543;DHT22;7873;52.230;12.856;2022-07-15T12:22:32;24.80;41.50
15543;DHT22;7873;52.230;12.856;2022-07-15T12:24:59;24.90;40.80
15543;DHT22;7873;52.230;12.856;2022-07-15T12:27:33;24.90;43.10
15543;DHT22;7873;52.230;12.856;2022-07-15T12:30:02;25.00;43.20
15543;DHT22;7873;52.230;12.856;2022-07-15T12:32:30;25.00;42.80
15543;DHT22;7873;52.230;12.856;2022-07-15T12:34:57;24.90;44.70
15543;DHT22;7873;52.230;12.856;2022-07-15T12:37:26;25.10;45.50
15543;DHT22;7873;52.230;12.856;2022-07-15T12:39:58;25.30;46.10
15543;DHT22;7873;52.230;12.856;2022-07-15T12:42:29;25.40;46.00
15543;DHT22;7873;52.230;12.856;2022-07-15T12:45:07;25.50;46.10
15543;DHT22;7873;52.230;12.856;2022-07-15T12:47:35;25.60;46.20
15543;DHT22;7873;52.230;12.856;2022-07-15T12:50:02;25.60;46.60
15543;DHT22;7873;52.230;12.856;2022-07-15T12:52:32;25.50;46.70
15543;DHT22;7873;52.230;12.856;2022-07-15T12:55:11;25.40;47.00
15543;DHT22;7873;52.230;12.856;2022-07-15T12:57:39;25.30;47.40
15543;DHT22;7873;52.230;12.856;2022-07-15T13:00:10;25.40;47.10
15543;DHT22;7873;52.230;12.856;2022-07-15T13:05:28;25.20;46.80
15543;DHT22;7873;52.230;12.856;2022-07-15T13:07:56;25.20;45.60
15543;DHT22;7873;52.230;12.856;2022-07-15T13:10:23;25.40;45.30
15543;DHT22;7873;52.230;12.856;2022-07-15T13:12:49;25.50;44.90
15543;DHT22;7873;52.230;12.856;2022-07-15T13:15:17;25.50;44.30
15543;DHT22;7873;52.230;12.856;2022-07-15T13:17:44;25.40;43.90
15543;DHT22;7873;52.230;12.856;2022-07-15T13:20:11;25.40;44.00
15543;DHT22;7873;52.230;12.856;2022-07-15T13:22:38;25.20;40.70
15543;DHT22;7873;52.230;12.856;2022-07-15T13:25:06;25.00;40.20
15543;DHT22;7873;52.230;12.856;2022-07-15T13:27:33;24.60;40.70
15543;DHT22;7873;52.230;12.856;2022-07-15T13:30:00;24.70;40.80
15543;DHT22;7873;52.230;12.856;2022-07-15T13:32:28;24.90;40.40
15543;DHT22;7873;52.230;12.856;2022-07-15T13:34:55;25.10;40.80
15543;DHT22;7873;52.230;12.856;2022-07-15T13:37:22;25.40;40.30
15543;DHT22;7873;52.230;12.856;2022-07-15T13:39:49;25.60;40.00
15543;DHT22;7873;52.230;12.856;2022-07-15T13:42:16;25.70;39.80
15543;DHT22;7873;52.230;12.856;2022-07-15T13:44:43;25.70;39.80
15543;DHT22;7873;52.230;12.856;2022-07-15T13:47:10;25.70;40.00
15543;DHT22;7873;52.230;12.856;2022-07-15T13:49:38;25.70;39.90
15543;DHT22;7873;52.230;12.856;2022-07-15T13:52:22;25.70;39.90
15543;DHT22;7873;52.230;12.856;2022-07-15T13:54:49;25.60;39.80
15543;DHT22;7873;52.230;12.856;2022-07-15T13:57:16;25.70;39.80
15543;DHT22;7873;52.230;12.856;2022-07-15T13:59:43;25.70;39.80
15543;DHT22;7873;52.230;12.856;2022-07-15T14:02:09;25.70;40.00
15543;DHT22;7873;52.230;12.856;2022-07-15T14:04:37;25.70;40.00
15543;DHT22;7873;52.230;12.856;2022-07-15T14:07:04;25.50;40.10
15543;DHT22;7873;52.230;12.856;2022-07-15T14:09:32;25.60;40.00
15543;DHT22;7873;52.230;12.856;2022-07-15T14:11:59;25.50;40.10
15543;DHT22;7873;52.230;12.856;2022-07-15T14:14:26;25.50;40.00
15543;DHT22;7873;52.230;12.856;2022-07-15T14:16:53;25.50;39.80
15543;DHT22;7873;52.230;12.856;2022-07-15T14:19:20;25.50;40.00
15543;DHT22;7873;52.230;12.856;2022-07-15T14:21:48;25.50;39.80
15543;DHT22;7873;52.230;12.856;2022-07-15T14:24:15;25.50;39.70
15543;DHT22;7873;52.230;12.856;2022-07-15T14:26:43;25.60;39.50
15543;DHT22;7873;52.230;12.856;2022-07-15T14:29:10;25.50;39.50
15543;DHT22;7873;52.230;12.856;2022-07-15T14:31:37;25.50;39.70
15543;DHT22;7873;52.230;12.856;2022-07-15T14:34:03;25.30;39.80
15543;DHT22;7873;52.230;12.856;2022-07-15T14:36:30;25.30;40.10
15543;DHT22;7873;52.230;12.856;2022-07-15T14:38:58;25.20;40.20
15543;DHT22;7873;52.230;12.856;2022-07-15T14:41:25;25.10;40.50
15543;DHT22;7873;52.230;12.856;2022-07-15T14:43:51;25.00;40.70
15543;DHT22;7873;52.230;12.856;2022-07-15T14:46:18;25.00;41.10
15543;DHT22;7873;52.230;12.856;2022-07-15T14:48:45;25.00;40.90
15543;DHT22;7873;52.230;12.856;2022-07-15T14:51:13;25.00;40.80
15543;DHT22;7873;52.230;12.856;2022-07-15T14:53:40;25.00;40.60
15543;DHT22;7873;52.230;12.856;2022-07-15T14:56:08;24.70;39.00
15543;DHT22;7873;52.230;12.856;2022-07-15T14:58:35;24.50;39.20
15543;DHT22;7873;52.230;12.856;2022-07-15T15:01:01;24.40;39.20
15543;DHT22;7873;52.230;12.856;2022-07-15T15:03:28;24.40;38.60
15543;DHT22;7873;52.230;12.856;2022-07-15T15:05:55;24.40;38.40
15543;DHT22;7873;52.230;12.856;2022-07-15T15:08:23;24.30;38.80
15543;DHT22;7873;52.230;12.856;2022-07-15T15:10:49;24.30;38.90
15543;DHT22;7873;52.230;12.856;2022-07-15T15:13:17;24.20;38.30
15543;DHT22;7873;52.230;12.856;2022-07-15T15:15:44;24.20;38.50
15543;DHT22;7873;52.230;12.856;2022-07-15T15:18:11;24.30;37.90
15543;DHT22;7873;52.230;12.856;2022-07-15T15:20:38;24.30;38.30
15543;DHT22;7873;52.230;12.856;2022-07-15T15:23:05;24.20;38.00
15543;DHT22;7873;52.230;12.856;2022-07-15T15:25:32;24.20;38.20
15543;DHT22;7873;52.230;12.856;2022-07-15T15:28:17;24.40;39.00
15543;DHT22;7873;52.230;12.856;2022-07-15T15:30:44;24.60;39.50
15543;DHT22;7873;52.230;12.856;2022-07-15T15:33:11;24.90;39.50
15543;DHT22;7873;52.230;12.856;2022-07-15T15:35:38;25.00;39.70
15543;DHT22;7873;52.230;12.856;2022-07-15T15:38:04;25.10;39.20
15543;DHT22;7873;52.230;12.856;2022-07-15T15:40:31;25.20;39.30
15543;DHT22;7873;52.230;12.856;2022-07-15T15:42:58;25.30;38.80
15543;DHT22;7873;52.230;12.856;2022-07-15T15:45:26;25.20;38.50
15543;DHT22;7873;52.230;12.856;2022-07-15T15:47:53;25.10;38.70
15543;DHT22;7873;52.230;12.856;2022-07-15T15:50:20;25.10;38.90
15543;DHT22;7873;52.230;12.856;2022-07-15T15:52:46;25.10;39.00
15543;DHT22;7873;52.230;12.856;2022-07-15T15:55:13;25.20;38.70